createdAt,value
2022-12-08T00:01:27.904Z,14.10
2022-12-08T00:04:16.114Z,14.10
2022-12-08T00:07:33.223Z,14.10
2022-12-08T00:10:48.013Z,14.20
2022-12-08T00:13:30.723Z,14.40
2022-12-08T00:16:18.804Z,14.60
2022-12-08T00:19:06.970Z,14.70
2022-12-08T00:21:55.980Z,14.30
2022-12-08T00:24:46.378Z,14.90
2022-12-08T00:27:34.425Z,15.00
2022-12-08T00:30:23.822Z,15.10
2022-12-08T00:33:12.400Z,15.10
2022-12-08T00:36:05.583Z,15.10
2022-12-08T00:38:53.936Z,15.10
2022-12-08T00:41:59.690Z,15.10
2022-12-08T00:44:48.592Z,15.10
2022-12-08T00:47:37.935Z,15.00
2022-12-08T00:50:25.991Z,15.00
2022-12-08T00:53:14.143Z,15.00
2022-12-08T00:56:02.182Z,15.00
2022-12-08T00:58:50.297Z,15.00
2022-12-08T01:01:38.464Z,14.90
2022-12-08T01:04:27.867Z,14.90
2022-12-08T01:07:16.115Z,14.80
2022-12-08T01:10:05.061Z,14.70
2022-12-08T01:12:53.200Z,14.60
2022-12-08T01:15:41.295Z,14.60
2022-12-08T01:18:30.023Z,14.60
2022-12-08T01:21:20.055Z,14.50
2022-12-08T01:24:11.388Z,14.50
2022-12-08T01:26:59.490Z,14.50
2022-12-08T01:29:47.546Z,14.40
2022-12-08T01:32:35.588Z,14.40
2022-12-08T01:35:23.856Z,14.40
2022-12-08T01:38:13.213Z,14.30
2022-12-08T01:41:01.403Z,14.30
2022-12-08T01:43:59.600Z,14.30
2022-12-08T01:46:48.487Z,14.30
2022-12-08T01:49:37.345Z,14.30
2022-12-08T01:52:30.204Z,14.30
2022-12-08T01:55:23.672Z,14.30
2022-12-08T01:58:16.646Z,14.20
2022-12-08T02:01:05.090Z,14.20
2022-12-08T02:03:59.224Z,14.20
2022-12-08T02:06:50.026Z,14.20
2022-12-08T02:09:40.914Z,14.20
2022-12-08T02:12:30.298Z,14.20
2022-12-08T02:15:19.051Z,14.20
2022-12-08T02:18:20.652Z,14.10
2022-12-08T02:21:13.712Z,14.10
2022-12-08T02:24:11.363Z,14.10
2022-12-08T02:27:19.242Z,14.10
2022-12-08T02:30:27.003Z,14.10
2022-12-08T02:33:45.223Z,14.10
2022-12-08T02:36:42.155Z,14.00
2022-12-08T02:39:37.570Z,14.00
2022-12-08T02:42:31.628Z,14.00
2022-12-08T02:45:25.163Z,14.00
2022-12-08T02:48:13.413Z,14.00
2022-12-08T02:51:02.930Z,14.00
2022-12-08T02:53:51.430Z,14.00
2022-12-08T02:56:54.036Z,14.00
2022-12-08T02:59:57.352Z,14.00
2022-12-08T03:02:57.666Z,14.00
2022-12-08T03:05:58.916Z,14.00
2022-12-08T03:08:56.036Z,14.00
2022-12-08T03:11:49.325Z,14.10
2022-12-08T03:14:39.791Z,14.10
2022-12-08T03:17:30.607Z,14.10
2022-12-08T03:20:22.217Z,14.10
2022-12-08T03:23:14.323Z,14.10
2022-12-08T03:26:09.071Z,14.10
2022-12-08T03:28:57.611Z,14.20
2022-12-08T03:31:51.559Z,14.10
2022-12-08T03:34:42.788Z,14.10
2022-12-08T03:37:31.305Z,14.10
2022-12-08T03:40:21.416Z,14.10
2022-12-08T03:43:10.951Z,14.10
2022-12-08T03:45:58.988Z,14.10
2022-12-08T03:48:47.190Z,14.10
2022-12-08T03:51:35.228Z,14.10
2022-12-08T03:54:24.116Z,14.00
2022-12-08T03:57:12.067Z,14.00
2022-12-08T04:00:01.448Z,14.10
2022-12-08T04:02:49.628Z,14.10
2022-12-08T04:05:37.669Z,14.20
2022-12-08T04:08:25.725Z,14.30
2022-12-08T04:11:13.934Z,14.40
2022-12-08T04:14:01.934Z,14.50
2022-12-08T04:16:51.221Z,14.60
2022-12-08T04:19:40.871Z,14.60
2022-12-08T04:22:28.887Z,14.70
2022-12-08T04:25:17.185Z,14.70
2022-12-08T04:28:05.590Z,14.80
2022-12-08T04:30:53.592Z,14.80
2022-12-08T04:33:42.980Z,14.80
2022-12-08T04:36:30.975Z,14.80
2022-12-08T04:39:18.965Z,14.70
2022-12-08T04:42:06.995Z,14.80
2022-12-08T04:44:55.123Z,14.80
2022-12-08T04:47:43.130Z,14.70
2022-12-08T04:50:32.492Z,14.70
2022-12-08T04:53:21.242Z,14.70
2022-12-08T04:56:13.099Z,14.60
2022-12-08T04:59:01.077Z,14.60
2022-12-08T05:01:49.252Z,14.60
2022-12-08T05:04:37.335Z,14.50
2022-12-08T05:07:26.645Z,14.50
2022-12-08T05:10:14.722Z,14.50
2022-12-08T05:13:02.701Z,14.40
2022-12-08T05:15:50.886Z,14.40
2022-12-08T05:18:40.152Z,14.40
2022-12-08T05:21:28.121Z,14.30
2022-12-08T05:24:17.532Z,14.30
2022-12-08T05:27:05.743Z,14.30
2022-12-08T05:29:53.740Z,14.20
2022-12-08T05:32:41.713Z,14.30
2022-12-08T05:35:29.685Z,14.30
2022-12-08T05:38:17.623Z,14.30
2022-12-08T05:41:07.463Z,14.40
2022-12-08T05:43:55.436Z,14.40
2022-12-08T05:46:43.722Z,14.50
2022-12-08T05:49:31.898Z,14.50
2022-12-08T05:52:19.845Z,14.60
2022-12-08T05:55:08.444Z,14.60
2022-12-08T05:57:57.729Z,14.60
2022-12-08T06:00:46.994Z,14.60
2022-12-08T06:03:35.332Z,14.60
2022-12-08T06:06:23.584Z,14.60
2022-12-08T06:09:12.395Z,14.60
2022-12-08T06:12:00.352Z,14.60
2022-12-08T06:14:49.657Z,14.60
2022-12-08T06:17:37.704Z,14.50
2022-12-08T06:20:25.929Z,14.50
2022-12-08T06:23:13.985Z,14.50
2022-12-08T06:26:02.820Z,14.50
2022-12-08T06:28:51.697Z,14.50
2022-12-08T06:31:41.692Z,14.40
2022-12-08T06:34:29.687Z,14.40
2022-12-08T06:37:17.656Z,14.40
2022-12-08T06:40:06.886Z,14.40
2022-12-08T06:42:55.057Z,14.30
2022-12-08T06:45:43.099Z,14.30
2022-12-08T06:48:32.476Z,14.30
2022-12-08T06:51:22.766Z,14.30
2022-12-08T06:54:10.773Z,14.30
2022-12-08T06:56:58.922Z,14.30
2022-12-08T06:59:46.901Z,14.20
2022-12-08T07:02:34.956Z,14.20
2022-12-08T07:05:24.398Z,14.20
2022-12-08T07:08:12.521Z,14.20
2022-12-08T07:11:01.043Z,14.20
2022-12-08T07:13:49.095Z,14.20
2022-12-08T07:16:37.276Z,14.30
2022-12-08T07:19:25.463Z,14.30
2022-12-08T07:22:14.764Z,14.30
2022-12-08T07:25:02.902Z,14.30
2022-12-08T07:27:51.741Z,14.40
2022-12-08T07:30:40.078Z,14.40
2022-12-08T07:33:28.577Z,14.40
2022-12-08T07:36:17.021Z,14.40
2022-12-08T07:39:06.426Z,14.40
2022-12-08T07:41:54.451Z,14.50
2022-12-08T07:44:42.462Z,14.40
2022-12-08T07:47:30.820Z,14.50
2022-12-08T07:50:18.823Z,14.50
2022-12-08T07:53:07.258Z,14.40
2022-12-08T07:55:56.877Z,14.40
2022-12-08T07:58:46.733Z,14.40
2022-12-08T08:01:36.068Z,14.50
2022-12-08T08:04:24.377Z,14.40
2022-12-08T08:07:12.438Z,14.50
2022-12-08T08:10:00.543Z,14.40
2022-12-08T08:12:49.836Z,14.40
2022-12-08T08:15:37.994Z,14.40
2022-12-08T08:18:26.048Z,14.40
2022-12-08T08:21:43.993Z,14.40
2022-12-08T08:24:24.100Z,14.40
2022-12-08T08:27:12.102Z,14.30
2022-12-08T08:30:01.518Z,14.30
2022-12-08T08:32:51.055Z,14.30
2022-12-08T08:35:39.674Z,14.30
2022-12-08T08:38:27.662Z,14.30
2022-12-08T08:41:15.689Z,14.20
2022-12-08T08:44:03.910Z,14.30
2022-12-08T08:46:53.456Z,14.40
2022-12-08T08:49:41.547Z,14.50
2022-12-08T08:52:30.101Z,14.60
2022-12-08T08:55:18.565Z,14.70
2022-12-08T08:58:06.648Z,14.70
2022-12-08T09:00:54.620Z,14.80
2022-12-08T09:03:44.465Z,14.80
2022-12-08T09:06:32.664Z,14.90
2022-12-08T09:09:20.752Z,14.90
2022-12-08T09:12:09.200Z,14.90
2022-12-08T09:14:57.334Z,15.00
2022-12-08T09:17:45.328Z,15.00
2022-12-08T09:20:35.413Z,15.00
2022-12-08T09:23:23.679Z,15.00
2022-12-08T09:26:11.719Z,15.00
2022-12-08T09:28:59.795Z,15.00
2022-12-08T09:31:47.895Z,15.00
2022-12-08T09:34:35.926Z,15.00
2022-12-08T09:37:25.240Z,15.00
2022-12-08T09:40:19.569Z,14.00
2022-12-08T09:43:15.916Z,14.90
2022-12-08T09:46:08.190Z,14.90
2022-12-08T09:48:59.771Z,14.90
2022-12-08T09:51:47.861Z,14.80
2022-12-08T09:54:37.213Z,14.80
2022-12-08T09:57:25.698Z,14.80
2022-12-08T10:00:15.204Z,14.70
2022-12-08T10:03:03.206Z,14.70
2022-12-08T10:05:57.033Z,14.60
2022-12-08T10:08:52.925Z,14.60
2022-12-08T10:12:00.539Z,14.60
2022-12-08T10:14:57.036Z,14.50
2022-12-08T10:17:48.461Z,14.50
2022-12-08T10:20:38.835Z,14.50
2022-12-08T10:23:34.056Z,14.50
2022-12-08T10:26:23.187Z,14.50
2022-12-08T10:29:14.952Z,14.50
2022-12-08T10:32:18.565Z,14.60
2022-12-08T10:35:09.356Z,14.60
2022-12-08T10:37:59.001Z,14.70
2022-12-08T10:40:48.749Z,14.70
2022-12-08T10:43:39.171Z,14.70
2022-12-08T10:46:30.189Z,14.70
2022-12-08T10:49:27.757Z,14.70
2022-12-08T10:52:23.836Z,14.80
2022-12-08T10:55:16.548Z,14.80
2022-12-08T10:58:04.564Z,14.80
2022-12-08T11:00:54.531Z,14.80
2022-12-08T11:03:48.731Z,14.80
2022-12-08T11:06:39.224Z,14.80
2022-12-08T11:09:39.403Z,14.80
2022-12-08T11:12:29.944Z,14.80
2022-12-08T11:15:19.601Z,14.80
2022-12-08T11:18:11.951Z,14.70
2022-12-08T11:21:07.097Z,14.70
2022-12-08T11:23:55.067Z,14.70
2022-12-08T11:26:50.417Z,14.60
2022-12-08T11:29:38.538Z,14.70
2022-12-08T11:32:26.770Z,14.60
2022-12-08T11:35:22.101Z,14.50
2022-12-08T11:38:21.712Z,14.50
2022-12-08T11:41:16.421Z,14.50
2022-12-08T11:44:09.278Z,14.50
2022-12-08T11:47:00.015Z,14.50
2022-12-08T11:49:50.968Z,14.50
2022-12-08T11:52:45.979Z,14.50
2022-12-08T11:55:42.652Z,14.50
2022-12-08T11:58:39.772Z,14.50
2022-12-08T12:01:28.275Z,14.40
2022-12-08T12:04:23.669Z,14.50
2022-12-08T12:07:34.444Z,14.50
2022-12-08T12:11:02.833Z,14.50
2022-12-08T12:14:03.631Z,14.50
2022-12-08T12:17:04.591Z,14.50
2022-12-08T12:19:54.511Z,14.40
2022-12-08T12:22:44.646Z,14.40
2022-12-08T12:25:35.596Z,14.40
2022-12-08T12:28:26.814Z,14.40
2022-12-08T12:31:18.626Z,14.40
2022-12-08T12:34:09.520Z,14.40
2022-12-08T12:37:04.407Z,14.40
2022-12-08T12:39:59.328Z,14.40
2022-12-08T12:42:50.780Z,14.30
2022-12-08T12:45:43.781Z,14.30
2022-12-08T12:48:31.833Z,14.30
2022-12-08T12:51:37.459Z,14.30
2022-12-08T12:54:27.008Z,14.40
2022-12-08T12:57:24.492Z,14.40
2022-12-08T13:00:20.144Z,14.40
2022-12-08T13:03:16.216Z,14.40
2022-12-08T13:06:07.844Z,14.40
2022-12-08T13:09:00.338Z,14.40
2022-12-08T13:11:51.653Z,14.40
2022-12-08T13:14:47.412Z,14.50
2022-12-08T13:17:38.896Z,14.50
2022-12-08T13:20:28.716Z,14.50
2022-12-08T13:23:44.099Z,14.50
2022-12-08T13:26:32.285Z,14.50
2022-12-08T13:29:24.518Z,14.50
2022-12-08T13:33:16.780Z,14.50
2022-12-08T13:36:15.479Z,14.50
2022-12-08T13:39:05.496Z,14.50
2022-12-08T13:42:00.127Z,14.50
2022-12-08T13:48:26.112Z,14.40
2022-12-08T13:57:38.159Z,14.40
2022-12-08T14:00:28.194Z,14.40
2022-12-08T14:03:16.246Z,14.30
2022-12-08T14:06:13.237Z,14.30
2022-12-08T14:09:10.282Z,14.40
2022-12-08T14:12:03.391Z,14.40
2022-12-08T14:15:02.948Z,14.50
2022-12-08T14:17:53.781Z,14.60
2022-12-08T14:21:12.533Z,14.60
2022-12-08T14:23:49.845Z,14.70
2022-12-08T14:26:39.348Z,14.70
2022-12-08T14:29:45.461Z,14.80
2022-12-08T14:32:38.268Z,14.80
2022-12-08T14:35:28.801Z,14.70
2022-12-08T14:38:18.773Z,14.80
2022-12-08T14:41:09.171Z,14.80
2022-12-08T14:44:02.792Z,14.80
2022-12-08T14:47:05.820Z,14.90
2022-12-08T14:49:53.918Z,14.80
2022-12-08T14:52:44.816Z,14.80
2022-12-08T14:55:36.268Z,14.70
2022-12-08T14:58:29.521Z,14.70
2022-12-08T15:01:23.606Z,14.70
2022-12-08T15:04:19.628Z,14.70
2022-12-08T15:07:12.777Z,14.60
2022-12-08T15:10:11.629Z,14.50
2022-12-08T15:13:03.143Z,14.60
2022-12-08T15:15:53.417Z,14.50
2022-12-08T15:18:42.770Z,14.50
2022-12-08T15:21:32.467Z,14.50
2022-12-08T15:24:22.856Z,14.40
2022-12-08T15:27:18.999Z,14.40
2022-12-08T15:30:13.263Z,14.40
2022-12-08T15:33:01.250Z,14.40
2022-12-08T15:35:51.739Z,14.30
2022-12-08T15:38:39.801Z,14.30
2022-12-08T15:41:27.801Z,14.30
2022-12-08T15:44:15.817Z,14.30
2022-12-08T15:47:04.226Z,14.30
2022-12-08T15:49:53.468Z,14.40
2022-12-08T15:52:43.177Z,14.40
2022-12-08T15:55:33.085Z,14.50
2022-12-08T15:58:56.480Z,14.60
2022-12-08T16:01:33.833Z,14.70
2022-12-08T16:07:31.632Z,14.80
2022-12-08T16:10:22.927Z,14.80
2022-12-08T16:16:43.393Z,14.90
2022-12-08T16:19:31.364Z,14.80
2022-12-08T16:25:46.047Z,14.90
2022-12-08T16:28:53.943Z,14.90
2022-12-08T16:31:42.572Z,14.90
2022-12-08T16:34:30.585Z,14.90
2022-12-08T16:37:20.119Z,14.80
2022-12-08T16:40:09.864Z,14.80
2022-12-08T16:42:58.562Z,14.80
2022-12-08T16:45:46.628Z,14.80
2022-12-08T16:48:34.744Z,14.70
2022-12-08T16:51:26.742Z,14.70
2022-12-08T16:54:14.974Z,14.60
2022-12-08T16:57:02.981Z,14.60
2022-12-08T16:59:52.269Z,14.60
2022-12-08T17:02:40.539Z,14.50
2022-12-08T17:05:28.610Z,14.50
2022-12-08T17:08:16.714Z,14.50
2022-12-08T17:11:12.582Z,14.50
2022-12-08T17:14:01.463Z,14.50
2022-12-08T17:16:50.882Z,14.50
2022-12-08T17:19:39.173Z,14.40
2022-12-08T17:22:27.197Z,14.40
2022-12-08T17:25:15.428Z,14.40
2022-12-08T17:28:03.405Z,14.40
2022-12-08T17:30:51.371Z,14.40
2022-12-08T17:33:41.106Z,14.30
2022-12-08T17:36:29.460Z,14.30
2022-12-08T17:39:18.940Z,14.30
2022-12-08T17:42:07.894Z,14.30
2022-12-08T17:44:56.097Z,14.30
2022-12-08T17:47:44.051Z,14.20
2022-12-08T17:50:33.399Z,14.30
2022-12-08T17:53:22.047Z,14.30
2022-12-08T17:56:16.157Z,14.30
2022-12-08T17:59:05.035Z,14.20
2022-12-08T18:01:53.802Z,14.20
2022-12-08T18:04:41.787Z,14.20
2022-12-08T18:07:31.136Z,14.20
2022-12-08T18:10:20.027Z,14.10
2022-12-08T18:13:09.473Z,14.10
2022-12-08T18:15:57.464Z,14.10
2022-12-08T18:18:45.583Z,14.10
2022-12-08T18:21:33.948Z,14.20
2022-12-08T18:24:24.247Z,14.10
2022-12-08T18:27:12.225Z,14.10
2022-12-08T18:30:01.964Z,14.20
2022-12-08T18:32:55.719Z,14.20
2022-12-08T18:35:45.250Z,14.20
2022-12-08T18:38:33.199Z,14.20
2022-12-08T18:41:25.771Z,14.20
2022-12-08T18:44:13.757Z,14.20
2022-12-08T18:47:01.727Z,14.20
2022-12-08T18:49:49.694Z,14.20
2022-12-08T18:52:37.686Z,14.30
2022-12-08T18:55:25.656Z,14.30
2022-12-08T18:58:15.195Z,14.30
2022-12-08T19:01:03.215Z,14.20
2022-12-08T19:04:20.083Z,14.20
2022-12-08T19:06:59.396Z,14.20
2022-12-08T19:09:47.383Z,14.20
2022-12-08T19:12:35.399Z,14.20
2022-12-08T19:15:24.685Z,14.10
2022-12-08T19:18:12.636Z,14.10
2022-12-08T19:21:00.605Z,14.10
2022-12-08T19:23:49.176Z,14.10
2022-12-08T19:26:37.176Z,14.10
2022-12-08T19:29:25.143Z,14.00
2022-12-08T19:32:14.628Z,14.00
2022-12-08T19:35:07.060Z,14.10
2022-12-08T19:37:55.703Z,14.10
2022-12-08T19:41:01.635Z,14.30
2022-12-08T19:44:07.472Z,14.40
2022-12-08T19:46:55.678Z,14.40
2022-12-08T19:49:45.121Z,14.50
2022-12-08T19:52:33.072Z,14.60
2022-12-08T19:55:21.150Z,14.60
2022-12-08T19:58:10.754Z,14.60
2022-12-08T20:00:58.923Z,14.70
2022-12-08T20:03:46.870Z,14.70
2022-12-08T20:06:36.138Z,14.70
2022-12-08T20:09:25.179Z,14.70
2022-12-08T20:12:14.482Z,14.70
2022-12-08T20:15:02.479Z,14.80
2022-12-08T20:17:50.455Z,14.70
2022-12-08T20:20:38.476Z,14.70
2022-12-08T20:23:27.808Z,14.60
2022-12-08T20:26:16.331Z,14.60
2022-12-08T20:29:04.751Z,14.60
2022-12-08T20:31:52.907Z,14.50
2022-12-08T20:34:40.933Z,14.50
2022-12-08T20:37:28.900Z,14.40
2022-12-08T20:40:18.363Z,14.40
2022-12-08T20:43:06.295Z,14.30
2022-12-08T20:45:54.313Z,14.30
2022-12-08T20:48:42.611Z,14.20
2022-12-08T20:51:32.356Z,14.20
2022-12-08T20:54:20.458Z,14.00
2022-12-08T20:57:09.873Z,14.10
2022-12-08T20:59:57.919Z,14.10
2022-12-08T21:02:50.840Z,14.10
2022-12-08T21:05:48.676Z,14.10
2022-12-08T21:08:37.472Z,14.10
2022-12-08T21:11:25.625Z,14.20
2022-12-08T21:14:15.144Z,14.10
2022-12-08T21:17:04.365Z,14.10
2022-12-08T21:19:52.834Z,14.10
2022-12-08T21:22:40.933Z,14.10
2022-12-08T21:25:28.976Z,14.10
2022-12-08T21:28:17.230Z,14.20
2022-12-08T21:31:08.944Z,14.10
2022-12-08T21:33:57.309Z,14.10
2022-12-08T21:36:45.455Z,14.20
2022-12-08T21:39:33.417Z,14.20
2022-12-08T21:42:39.338Z,14.20
2022-12-08T21:45:27.372Z,14.10
2022-12-08T21:48:16.870Z,14.10
2022-12-08T21:51:05.514Z,14.10
2022-12-08T21:53:53.777Z,14.10
2022-12-08T21:56:44.449Z,14.00
2022-12-08T21:59:32.827Z,14.00
2022-12-08T22:02:22.624Z,14.00
2022-12-08T22:05:12.772Z,14.00
2022-12-08T22:08:00.919Z,14.00
2022-12-08T22:10:49.608Z,13.90
2022-12-08T22:13:38.995Z,13.90
2022-12-08T22:16:27.208Z,13.90
2022-12-08T22:19:15.272Z,13.90
2022-12-08T22:22:04.722Z,13.90
2022-12-08T22:24:52.768Z,13.90
2022-12-08T22:27:41.712Z,13.90
2022-12-08T22:30:34.005Z,14.00
2022-12-08T22:33:25.647Z,14.00
2022-12-08T22:36:16.873Z,14.00
2022-12-08T22:39:06.258Z,14.10
2022-12-08T22:41:54.596Z,14.10
2022-12-08T22:44:42.663Z,14.20
2022-12-08T22:47:30.779Z,14.20
2022-12-08T22:50:18.808Z,14.20
2022-12-08T22:53:07.023Z,14.20
2022-12-08T22:55:56.596Z,14.20
2022-12-08T22:58:45.511Z,14.20
2022-12-08T23:01:34.540Z,14.30
2022-12-08T23:04:22.626Z,14.30
2022-12-08T23:07:10.734Z,14.20
2022-12-08T23:09:58.838Z,14.20
2022-12-08T23:12:48.257Z,14.10
2022-12-08T23:15:36.282Z,14.10
2022-12-08T23:18:24.403Z,14.10
2022-12-08T23:21:14.661Z,14.00
2022-12-08T23:24:02.690Z,14.00
2022-12-08T23:26:50.655Z,14.00
2022-12-08T23:29:40.020Z,13.90
2022-12-08T23:32:28.275Z,13.90
2022-12-08T23:35:16.317Z,13.90
2022-12-08T23:38:04.371Z,13.80
2022-12-08T23:40:52.705Z,13.80
2022-12-08T23:43:45.476Z,13.80
2022-12-08T23:46:34.827Z,13.90
2022-12-08T23:49:23.463Z,13.90
2022-12-08T23:52:13.910Z,13.90
2022-12-08T23:55:01.880Z,14.00
2022-12-08T23:57:50.125Z,14.00
